sensor_id;sensor_type;location;lat;lon;timestamp;pressure;altitude;pressure_sealevel;temperature;humidity
9855;BME280;4966;48.112;9.282;2023-08-08T00:00:08;94966.69;;;10.85;77.71
9855;BME280;4966;48.112;9.282;2023-08-08T00:02:34;94961.63;;;10.96;76.61
9855;BME280;4966;48.112;9.282;2023-08-08T00:05:00;94959.31;;;11.06;75.71
9855;BME280;4966;48.112;9.282;2023-08-08T00:07:26;94968.00;;;11.00;75.03
9855;BME280;4966;48.112;9.282;2023-08-08T00:09:51;94969.31;;;10.94;76.00
9855;BME280;4966;48.112;9.282;2023-08-08T00:12:16;94963.22;;;10.97;76.63
9855;BME280;4966;48.112;9.282;2023-08-08T00:14:42;94961.47;;;11.13;74.98
9855;BME280;4966;48.112;9.282;2023-08-08T00:17:07;94964.69;;;10.94;75.67
9855;BME280;4966;48.112;9.282;2023-08-08T00:19:32;94961.03;;;10.90;76.09
9855;BME280;4966;48.112;9.282;2023-08-08T00:21:58;94960.03;;;10.95;76.46
9855;BME280;4966;48.112;9.282;2023-08-08T00:24:23;94965.88;;;10.84;77.76
9855;BME280;4966;48.112;9.282;2023-08-08T00:26:48;94969.78;;;10.96;77.32
9855;BME280;4966;48.112;9.282;2023-08-08T00:29:14;94967.47;;;11.06;77.01
9855;BME280;4966;48.112;9.282;2023-08-08T00:31:39;94965.66;;;11.11;76.43
9855;BME280;4966;48.112;9.282;2023-08-08T00:34:04;94966.91;;;11.13;76.59
9855;BME280;4966;48.112;9.282;2023-08-08T00:36:30;94971.41;;;10.97;77.20
9855;BME280;4966;48.112;9.282;2023-08-08T00:38:55;94971.09;;;11.11;77.22
9855;BME280;4966;48.112;9.282;2023-08-08T00:41:20;94973.81;;;11.11;76.85
9855;BME280;4966;48.112;9.282;2023-08-08T00:43:46;94963.44;;;11.25;76.03
9855;BME280;4966;48.112;9.282;2023-08-08T00:46:12;94965.13;;;11.17;76.18
9855;BME280;4966;48.112;9.282;2023-08-08T00:48:37;94959.72;;;11.29;75.61
9855;BME280;4966;48.112;9.282;2023-08-08T00:51:03;94964.25;;;11.25;75.42
9855;BME280;4966;48.112;9.282;2023-08-08T00:53:29;94960.59;;;11.21;75.67
9855;BME280;4966;48.112;9.282;2023-08-08T00:55:58;94961.19;;;11.27;75.78
9855;BME280;4966;48.112;9.282;2023-08-08T00:58:23;94960.38;;;11.26;76.06
9855;BME280;4966;48.112;9.282;2023-08-08T01:00:49;94969.56;;;11.22;76.24
9855;BME280;4966;48.112;9.282;2023-08-08T01:03:14;94956.72;;;11.22;76.44
9855;BME280;4966;48.112;9.282;2023-08-08T01:08:52;94951.56;;;11.42;74.96
9855;BME280;4966;48.112;9.282;2023-08-08T01:11:19;94944.53;;;11.41;75.01
9855;BME280;4966;48.112;9.282;2023-08-08T01:13:45;94952.16;;;11.35;75.43
9855;BME280;4966;48.112;9.282;2023-08-08T01:16:12;94949.03;;;11.24;75.85
9855;BME280;4966;48.112;9.282;2023-08-08T01:18:38;94943.94;;;11.23;76.08
9855;BME280;4966;48.112;9.282;2023-08-08T01:21:05;94941.16;;;11.11;76.43
9855;BME280;4966;48.112;9.282;2023-08-08T01:23:45;94935.34;;;11.00;76.98
9855;BME280;4966;48.112;9.282;2023-08-08T01:26:11;94937.38;;;11.03;77.31
9855;BME280;4966;48.112;9.282;2023-08-08T01:28:37;94932.91;;;11.19;76.74
9855;BME280;4966;48.112;9.282;2023-08-08T01:31:02;94945.22;;;11.04;77.92
9855;BME280;4966;48.112;9.282;2023-08-08T01:33:27;94952.00;;;10.98;78.44
9855;BME280;4966;48.112;9.282;2023-08-08T01:35:58;94942.03;;;10.81;79.60
9855;BME280;4966;48.112;9.282;2023-08-08T01:38:32;94933.03;;;10.90;78.88
9855;BME280;4966;48.112;9.282;2023-08-08T01:40:59;94928.03;;;11.25;77.61
9855;BME280;4966;48.112;9.282;2023-08-08T01:43:25;94934.84;;;11.19;77.93
9855;BME280;4966;48.112;9.282;2023-08-08T01:45:52;94927.38;;;11.28;78.02
9855;BME280;4966;48.112;9.282;2023-08-08T01:48:18;94928.19;;;11.28;78.44
9855;BME280;4966;48.112;9.282;2023-08-08T01:50:43;94937.03;;;11.25;78.88
9855;BME280;4966;48.112;9.282;2023-08-08T01:53:09;94932.63;;;11.33;78.51
9855;BME280;4966;48.112;9.282;2023-08-08T01:55:34;94929.63;;;11.59;77.25
9855;BME280;4966;48.112;9.282;2023-08-08T01:58:00;94924.28;;;11.63;76.64
9855;BME280;4966;48.112;9.282;2023-08-08T02:00:25;94918.53;;;11.31;77.73
9855;BME280;4966;48.112;9.282;2023-08-08T02:02:51;94918.69;;;11.47;77.00
9855;BME280;4966;48.112;9.282;2023-08-08T02:05:16;94922.75;;;11.41;77.61
9855;BME280;4966;48.112;9.282;2023-08-08T02:07:41;94904.63;;;11.45;77.96
9855;BME280;4966;48.112;9.282;2023-08-08T02:10:07;94930.19;;;11.65;76.97
9855;BME280;4966;48.112;9.282;2023-08-08T02:12:32;94928.22;;;11.53;77.31
9855;BME280;4966;48.112;9.282;2023-08-08T02:14:58;94920.50;;;11.43;78.30
9855;BME280;4966;48.112;9.282;2023-08-08T02:17:24;94930.25;;;11.44;78.40
9855;BME280;4966;48.112;9.282;2023-08-08T02:19:50;94923.03;;;11.15;79.86
9855;BME280;4966;48.112;9.282;2023-08-08T02:22:15;94928.38;;;11.23;79.99
9855;BME280;4966;48.112;9.282;2023-08-08T02:24:40;94920.94;;;11.33;79.47
9855;BME280;4966;48.112;9.282;2023-08-08T02:27:06;94919.78;;;11.34;79.37
9855;BME280;4966;48.112;9.282;2023-08-08T02:29:31;94918.88;;;11.42;79.15
9855;BME280;4966;48.112;9.282;2023-08-08T02:31:56;94920.50;;;11.55;78.19
9855;BME280;4966;48.112;9.282;2023-08-08T02:34:22;94912.56;;;11.50;77.95
9855;BME280;4966;48.112;9.282;2023-08-08T02:36:47;94921.50;;;11.38;78.38
9855;BME280;4966;48.112;9.282;2023-08-08T02:39:13;94917.56;;;11.48;77.73
9855;BME280;4966;48.112;9.282;2023-08-08T02:41:38;94919.38;;;11.56;77.32
9855;BME280;4966;48.112;9.282;2023-08-08T02:44:03;94906.34;;;11.62;76.85
9855;BME280;4966;48.112;9.282;2023-08-08T02:46:29;94909.59;;;11.43;77.59
9855;BME280;4966;48.112;9.282;2023-08-08T02:48:54;94916.84;;;11.39;77.79
9855;BME280;4966;48.112;9.282;2023-08-08T02:51:19;94918.16;;;11.20;78.61
9855;BME280;4966;48.112;9.282;2023-08-08T02:53:45;94924.72;;;10.86;80.80
9855;BME280;4966;48.112;9.282;2023-08-08T02:56:10;94914.75;;;11.11;80.11
9855;BME280;4966;48.112;9.282;2023-08-08T02:58:35;94915.09;;;11.22;79.92
9855;BME280;4966;48.112;9.282;2023-08-08T03:01:01;94906.63;;;11.36;78.97
9855;BME280;4966;48.112;9.282;2023-08-08T03:03:26;94917.41;;;11.44;78.59
9855;BME280;4966;48.112;9.282;2023-08-08T03:05:51;94918.53;;;11.31;78.63
9855;BME280;4966;48.112;9.282;2023-08-08T03:08:16;94913.41;;;11.29;78.61
9855;BME280;4966;48.112;9.282;2023-08-08T03:10:42;94910.31;;;11.52;77.93
9855;BME280;4966;48.112;9.282;2023-08-08T03:13:07;94913.25;;;11.47;77.30
9855;BME280;4966;48.112;9.282;2023-08-08T03:15:32;94912.88;;;11.36;77.93
9855;BME280;4966;48.112;9.282;2023-08-08T03:17:58;94903.53;;;11.25;78.52
9855;BME280;4966;48.112;9.282;2023-08-08T03:20:23;94899.81;;;11.42;78.02
9855;BME280;4966;48.112;9.282;2023-08-08T03:22:49;94902.19;;;11.31;78.56
9855;BME280;4966;48.112;9.282;2023-08-08T03:25:14;94892.34;;;11.51;78.06
9855;BME280;4966;48.112;9.282;2023-08-08T03:27:39;94884.47;;;11.25;79.48
9855;BME280;4966;48.112;9.282;2023-08-08T03:30:05;94889.59;;;11.26;79.57
9855;BME280;4966;48.112;9.282;2023-08-08T03:32:31;94893.50;;;11.50;79.10
9855;BME280;4966;48.112;9.282;2023-08-08T03:34:57;94893.97;;;11.52;79.17
9855;BME280;4966;48.112;9.282;2023-08-08T03:37:22;94897.34;;;11.49;79.44
9855;BME280;4966;48.112;9.282;2023-08-08T03:39:47;94892.13;;;11.56;79.19
9855;BME280;4966;48.112;9.282;2023-08-08T03:42:13;94896.91;;;11.59;79.38
9855;BME280;4966;48.112;9.282;2023-08-08T03:44:38;94902.69;;;11.70;78.98
9855;BME280;4966;48.112;9.282;2023-08-08T03:47:03;94901.50;;;11.92;77.87
9855;BME280;4966;48.112;9.282;2023-08-08T03:49:29;94899.81;;;12.00;77.38
9855;BME280;4966;48.112;9.282;2023-08-08T03:51:54;94903.66;;;11.99;76.67
9855;BME280;4966;48.112;9.282;2023-08-08T03:54:19;94901.94;;;11.94;76.77
9855;BME280;4966;48.112;9.282;2023-08-08T03:56:45;94903.53;;;11.83;77.58
9855;BME280;4966;48.112;9.282;2023-08-08T03:59:10;94898.63;;;11.76;78.59
9855;BME280;4966;48.112;9.282;2023-08-08T04:01:35;94902.63;;;11.91;78.21
9855;BME280;4966;48.112;9.282;2023-08-08T04:04:03;94915.75;;;11.52;80.35
9855;BME280;4966;48.112;9.282;2023-08-08T04:06:29;94906.97;;;11.34;81.96
9855;BME280;4966;48.112;9.282;2023-08-08T04:08:54;94904.50;;;11.54;81.02
9855;BME280;4966;48.112;9.282;2023-08-08T04:11:19;94907.13;;;11.62;80.66
9855;BME280;4966;48.112;9.282;2023-08-08T04:13:45;94917.34;;;11.65;79.93
9855;BME280;4966;48.112;9.282;2023-08-08T04:16:10;94917.09;;;11.58;80.57
9855;BME280;4966;48.112;9.282;2023-08-08T04:18:35;94914.41;;;11.70;79.71
9855;BME280;4966;48.112;9.282;2023-08-08T04:21:00;94909.75;;;11.71;79.81
9855;BME280;4966;48.112;9.282;2023-08-08T04:23:26;94914.63;;;11.78;79.69
9855;BME280;4966;48.112;9.282;2023-08-08T04:25:52;94914.78;;;11.94;79.06
9855;BME280;4966;48.112;9.282;2023-08-08T04:28:17;94916.97;;;12.00;78.38
9855;BME280;4966;48.112;9.282;2023-08-08T04:30:43;94923.25;;;11.80;79.10
9855;BME280;4966;48.112;9.282;2023-08-08T04:33:08;94921.78;;;11.82;79.38
9855;BME280;4966;48.112;9.282;2023-08-08T04:35:34;94927.94;;;11.79;79.78
9855;BME280;4966;48.112;9.282;2023-08-08T04:37:59;94925.81;;;11.97;78.95
9855;BME280;4966;48.112;9.282;2023-08-08T04:40:25;94923.75;;;11.94;79.34
9855;BME280;4966;48.112;9.282;2023-08-08T04:42:51;94918.75;;;12.21;77.89
9855;BME280;4966;48.112;9.282;2023-08-08T04:45:16;94925.78;;;12.34;77.03
9855;BME280;4966;48.112;9.282;2023-08-08T04:47:41;94923.16;;;12.38;76.56
9855;BME280;4966;48.112;9.282;2023-08-08T04:50:07;94925.19;;;12.53;75.94
9855;BME280;4966;48.112;9.282;2023-08-08T04:52:32;94921.34;;;12.42;76.32
9855;BME280;4966;48.112;9.282;2023-08-08T04:54:58;94921.22;;;12.50;76.48
9855;BME280;4966;48.112;9.282;2023-08-08T04:57:23;94925.28;;;12.56;76.95
9855;BME280;4966;48.112;9.282;2023-08-08T04:59:48;94928.47;;;12.59;77.20
9855;BME280;4966;48.112;9.282;2023-08-08T05:02:14;94926.53;;;12.71;76.79
9855;BME280;4966;48.112;9.282;2023-08-08T05:04:39;94928.56;;;12.74;76.48
9855;BME280;4966;48.112;9.282;2023-08-08T05:07:05;94931.63;;;12.73;77.05
9855;BME280;4966;48.112;9.282;2023-08-08T05:09:31;94934.13;;;12.78;76.71
9855;BME280;4966;48.112;9.282;2023-08-08T05:11:56;94926.81;;;12.82;76.28
9855;BME280;4966;48.112;9.282;2023-08-08T05:14:22;94932.19;;;12.79;76.51
9855;BME280;4966;48.112;9.282;2023-08-08T05:16:47;94923.31;;;12.82;76.14
9855;BME280;4966;48.112;9.282;2023-08-08T05:19:12;94926.13;;;12.85;76.39
9855;BME280;4966;48.112;9.282;2023-08-08T05:21:37;94924.72;;;13.04;75.59
9855;BME280;4966;48.112;9.282;2023-08-08T05:24:03;94926.41;;;13.08;74.63
9855;BME280;4966;48.112;9.282;2023-08-08T05:26:28;94937.47;;;12.99;75.28
9855;BME280;4966;48.112;9.282;2023-08-08T05:28:54;94928.44;;;13.11;75.09
9855;BME280;4966;48.112;9.282;2023-08-08T05:31:19;94918.97;;;12.93;75.81
9855;BME280;4966;48.112;9.282;2023-08-08T05:33:45;94930.81;;;13.13;74.85
9855;BME280;4966;48.112;9.282;2023-08-08T05:36:10;94925.88;;;13.03;75.35
9855;BME280;4966;48.112;9.282;2023-08-08T05:38:36;94930.72;;;13.09;75.33
9855;BME280;4966;48.112;9.282;2023-08-08T05:41:01;94927.63;;;13.11;75.73
9855;BME280;4966;48.112;9.282;2023-08-08T05:43:27;94925.25;;;13.09;76.08
9855;BME280;4966;48.112;9.282;2023-08-08T05:45:53;94924.97;;;13.27;76.04
9855;BME280;4966;48.112;9.282;2023-08-08T05:48:18;94923.44;;;13.42;75.64
9855;BME280;4966;48.112;9.282;2023-08-08T05:50:44;94922.88;;;13.36;75.66
9855;BME280;4966;48.112;9.282;2023-08-08T05:53:09;94924.56;;;13.40;75.64
9855;BME280;4966;48.112;9.282;2023-08-08T05:55:34;94921.22;;;13.19;76.47
9855;BME280;4966;48.112;9.282;2023-08-08T05:58:00;94918.16;;;13.49;77.00
9855;BME280;4966;48.112;9.282;2023-08-08T06:00:25;94914.63;;;13.64;76.76
9855;BME280;4966;48.112;9.282;2023-08-08T06:02:50;94912.69;;;13.65;76.30
9855;BME280;4966;48.112;9.282;2023-08-08T06:05:21;94920.81;;;13.93;75.44
9855;BME280;4966;48.112;9.282;2023-08-08T06:07:47;94922.06;;;13.95;75.14
9855;BME280;4966;48.112;9.282;2023-08-08T06:10:12;94922.59;;;14.01;74.55
9855;BME280;4966;48.112;9.282;2023-08-08T06:12:37;94918.88;;;14.09;73.94
9855;BME280;4966;48.112;9.282;2023-08-08T06:15:03;94921.59;;;14.25;72.50
9855;BME280;4966;48.112;9.282;2023-08-08T06:17:29;94924.69;;;14.23;72.76
9855;BME280;4966;48.112;9.282;2023-08-08T06:19:54;94916.66;;;14.15;72.86
9855;BME280;4966;48.112;9.282;2023-08-08T06:22:21;94924.78;;;13.95;72.49
9855;BME280;4966;48.112;9.282;2023-08-08T06:24:46;94916.03;;;14.21;72.28
9855;BME280;4966;48.112;9.282;2023-08-08T06:27:12;94916.34;;;14.52;71.23
9855;BME280;4966;48.112;9.282;2023-08-08T06:29:38;94926.06;;;14.49;70.64
9855;BME280;4966;48.112;9.282;2023-08-08T06:32:04;94917.63;;;14.74;70.45
9855;BME280;4966;48.112;9.282;2023-08-08T06:34:29;94921.44;;;14.53;70.02
9855;BME280;4966;48.112;9.282;2023-08-08T06:36:54;94915.03;;;14.61;70.12
9855;BME280;4966;48.112;9.282;2023-08-08T06:39:20;94916.91;;;14.77;69.95
9855;BME280;4966;48.112;9.282;2023-08-08T06:41:47;94909.81;;;14.56;69.29
9855;BME280;4966;48.112;9.282;2023-08-08T06:44:12;94910.84;;;14.67;69.33
9855;BME280;4966;48.112;9.282;2023-08-08T06:46:38;94904.53;;;14.83;68.62
9855;BME280;4966;48.112;9.282;2023-08-08T06:49:03;94906.69;;;14.93;68.37
9855;BME280;4966;48.112;9.282;2023-08-08T06:51:29;94911.47;;;15.16;67.55
9855;BME280;4966;48.112;9.282;2023-08-08T06:53:55;94903.22;;;15.35;66.41
9855;BME280;4966;48.112;9.282;2023-08-08T06:56:20;94908.28;;;15.56;66.85
9855;BME280;4966;48.112;9.282;2023-08-08T06:58:45;94909.81;;;15.53;66.12
9855;BME280;4966;48.112;9.282;2023-08-08T07:01:11;94914.91;;;15.74;66.05
9855;BME280;4966;48.112;9.282;2023-08-08T07:03:36;94914.84;;;15.94;64.37
9855;BME280;4966;48.112;9.282;2023-08-08T07:06:03;94907.16;;;16.03;64.02
9855;BME280;4966;48.112;9.282;2023-08-08T07:08:28;94909.56;;;16.05;63.40
9855;BME280;4966;48.112;9.282;2023-08-08T07:10:54;94914.97;;;16.01;65.07
9855;BME280;4966;48.112;9.282;2023-08-08T07:13:20;94908.19;;;16.45;62.62
9855;BME280;4966;48.112;9.282;2023-08-08T07:15:45;94909.41;;;16.74;61.53
9855;BME280;4966;48.112;9.282;2023-08-08T07:18:10;94906.50;;;16.63;60.73
9855;BME280;4966;48.112;9.282;2023-08-08T07:20:35;94906.19;;;16.42;60.67
9855;BME280;4966;48.112;9.282;2023-08-08T07:23:01;94912.28;;;16.54;60.93
9855;BME280;4966;48.112;9.282;2023-08-08T07:25:26;94903.22;;;16.54;60.02
9855;BME280;4966;48.112;9.282;2023-08-08T07:27:52;94899.66;;;16.50;59.98
9855;BME280;4966;48.112;9.282;2023-08-08T07:30:17;94890.81;;;16.64;60.37
9855;BME280;4966;48.112;9.282;2023-08-08T07:32:42;94895.25;;;16.72;59.79
9855;BME280;4966;48.112;9.282;2023-08-08T07:35:08;94895.47;;;16.86;59.58
9855;BME280;4966;48.112;9.282;2023-08-08T07:37:34;94888.19;;;17.01;59.61
9855;BME280;4966;48.112;9.282;2023-08-08T07:39:59;94891.81;;;17.09;59.17
9855;BME280;4966;48.112;9.282;2023-08-08T07:42:25;94891.06;;;17.46;58.58
9855;BME280;4966;48.112;9.282;2023-08-08T07:44:50;94887.19;;;17.16;58.09
9855;BME280;4966;48.112;9.282;2023-08-08T07:47:16;94890.78;;;17.20;58.91
9855;BME280;4966;48.112;9.282;2023-08-08T07:49:41;94892.94;;;17.04;60.02
9855;BME280;4966;48.112;9.282;2023-08-08T07:52:06;94884.59;;;17.31;59.59
9855;BME280;4966;48.112;9.282;2023-08-08T07:54:33;94882.84;;;17.49;59.10
9855;BME280;4966;48.112;9.282;2023-08-08T07:56:58;94881.22;;;17.44;59.48
9855;BME280;4966;48.112;9.282;2023-08-08T07:59:23;94880.38;;;17.78;58.29
9855;BME280;4966;48.112;9.282;2023-08-08T08:01:49;94871.56;;;18.02;57.01
9855;BME280;4966;48.112;9.282;2023-08-08T08:04:14;94865.56;;;17.93;56.76
9855;BME280;4966;48.112;9.282;2023-08-08T08:06:39;94866.94;;;17.73;56.97
9855;BME280;4966;48.112;9.282;2023-08-08T08:09:05;94871.25;;;17.70;56.61
9855;BME280;4966;48.112;9.282;2023-08-08T08:11:30;94866.88;;;18.06;56.03
9855;BME280;4966;48.112;9.282;2023-08-08T08:13:55;94856.38;;;18.26;54.63
9855;BME280;4966;48.112;9.282;2023-08-08T08:16:20;94867.44;;;18.34;54.83
9855;BME280;4966;48.112;9.282;2023-08-08T08:18:46;94861.63;;;18.42;54.20
9855;BME280;4966;48.112;9.282;2023-08-08T08:21:13;94851.09;;;18.59;53.96
9855;BME280;4966;48.112;9.282;2023-08-08T08:23:39;94857.94;;;18.83;52.05
9855;BME280;4966;48.112;9.282;2023-08-08T08:26:04;94855.97;;;18.83;53.09
9855;BME280;4966;48.112;9.282;2023-08-08T08:28:30;94852.16;;;19.06;53.85
9855;BME280;4966;48.112;9.282;2023-08-08T08:30:55;94842.50;;;18.75;51.51
9855;BME280;4966;48.112;9.282;2023-08-08T08:33:20;94853.97;;;18.77;52.59
9855;BME280;4966;48.112;9.282;2023-08-08T08:35:45;94854.91;;;19.06;51.48
9855;BME280;4966;48.112;9.282;2023-08-08T08:38:11;94854.50;;;19.07;51.08
9855;BME280;4966;48.112;9.282;2023-08-08T08:40:39;94851.50;;;19.66;48.19
9855;BME280;4966;48.112;9.282;2023-08-08T08:43:07;94852.31;;;19.99;48.55
9855;BME280;4966;48.112;9.282;2023-08-08T08:45:36;94850.75;;;19.76;47.17
9855;BME280;4966;48.112;9.282;2023-08-08T08:48:03;94850.38;;;19.85;47.19
9855;BME280;4966;48.112;9.282;2023-08-08T08:50:32;94847.22;;;19.76;47.03
9855;BME280;4966;48.112;9.282;2023-08-08T08:52:59;94853.09;;;19.74;46.83
9855;BME280;4966;48.112;9.282;2023-08-08T08:55:26;94843.63;;;19.61;47.19
9855;BME280;4966;48.112;9.282;2023-08-08T08:57:52;94844.06;;;19.81;46.01
9855;BME280;4966;48.112;9.282;2023-08-08T09:00:18;94848.72;;;19.63;46.65
9855;BME280;4966;48.112;9.282;2023-08-08T09:02:43;94841.69;;;19.76;46.08
9855;BME280;4966;48.112;9.282;2023-08-08T09:05:10;94835.31;;;20.65;44.47
9855;BME280;4966;48.112;9.282;2023-08-08T09:07:37;94834.13;;;20.45;44.73
9855;BME280;4966;48.112;9.282;2023-08-08T09:10:02;94827.00;;;20.72;44.49
9855;BME280;4966;48.112;9.282;2023-08-08T09:12:30;94838.03;;;20.79;45.52
9855;BME280;4966;48.112;9.282;2023-08-08T09:14:56;94833.69;;;20.86;44.88
9855;BME280;4966;48.112;9.282;2023-08-08T09:17:24;94846.41;;;20.62;45.00
9855;BME280;4966;48.112;9.282;2023-08-08T09:19:52;94825.72;;;20.95;43.96
9855;BME280;4966;48.112;9.282;2023-08-08T09:22:17;94821.09;;;20.49;43.98
9855;BME280;4966;48.112;9.282;2023-08-08T09:24:43;94829.53;;;21.26;43.75
9855;BME280;4966;48.112;9.282;2023-08-08T09:27:09;94822.47;;;21.18;43.70
9855;BME280;4966;48.112;9.282;2023-08-08T09:29:35;94826.41;;;21.20;42.75
9855;BME280;4966;48.112;9.282;2023-08-08T09:32:03;94831.69;;;20.86;43.27
9855;BME280;4966;48.112;9.282;2023-08-08T09:34:29;94824.25;;;21.57;42.05
9855;BME280;4966;48.112;9.282;2023-08-08T09:36:55;94826.19;;;20.75;43.27
9855;BME280;4966;48.112;9.282;2023-08-08T09:39:20;94824.00;;;21.26;44.69
9855;BME280;4966;48.112;9.282;2023-08-08T09:41:47;94819.19;;;21.37;42.02
9855;BME280;4966;48.112;9.282;2023-08-08T09:44:13;94823.56;;;21.45;41.90
9855;BME280;4966;48.112;9.282;2023-08-08T09:46:39;94826.72;;;21.40;42.06
9855;BME280;4966;48.112;9.282;2023-08-08T09:49:05;94822.81;;;21.23;42.76
9855;BME280;4966;48.112;9.282;2023-08-08T09:51:30;94818.94;;;21.17;43.91
9855;BME280;4966;48.112;9.282;2023-08-08T09:53:56;94807.53;;;22.23;41.85
9855;BME280;4966;48.112;9.282;2023-08-08T09:56:25;94808.81;;;21.63;39.95
9855;BME280;4966;48.112;9.282;2023-08-08T09:58:52;94815.03;;;22.26;41.29
9855;BME280;4966;48.112;9.282;2023-08-08T10:01:19;94810.59;;;21.87;37.34
9855;BME280;4966;48.112;9.282;2023-08-08T10:03:45;94812.78;;;22.11;38.95
9855;BME280;4966;48.112;9.282;2023-08-08T10:06:11;94811.22;;;21.54;36.90
9855;BME280;4966;48.112;9.282;2023-08-08T10:08:36;94805.97;;;21.70;38.42
9855;BME280;4966;48.112;9.282;2023-08-08T10:11:02;94800.78;;;21.79;37.44
9855;BME280;4966;48.112;9.282;2023-08-08T10:13:29;94806.03;;;21.63;38.13
9855;BME280;4966;48.112;9.282;2023-08-08T10:15:55;94805.22;;;22.15;39.32
9855;BME280;4966;48.112;9.282;2023-08-08T10:18:24;94818.13;;;22.36;38.87
9855;BME280;4966;48.112;9.282;2023-08-08T10:20:50;94805.16;;;22.63;39.77
9855;BME280;4966;48.112;9.282;2023-08-08T10:23:18;94792.81;;;23.06;37.80
9855;BME280;4966;48.112;9.282;2023-08-08T10:25:44;94806.66;;;22.71;37.08
9855;BME280;4966;48.112;9.282;2023-08-08T10:28:12;94805.47;;;23.07;38.13
9855;BME280;4966;48.112;9.282;2023-08-08T10:30:52;94816.03;;;22.47;40.91
9855;BME280;4966;48.112;9.282;2023-08-08T10:33:38;94804.59;;;21.93;41.13
9855;BME280;4966;48.112;9.282;2023-08-08T10:36:05;94806.44;;;21.61;41.21
9855;BME280;4966;48.112;9.282;2023-08-08T10:38:45;94802.53;;;22.87;39.79
9855;BME280;4966;48.112;9.282;2023-08-08T10:41:18;94798.22;;;23.17;38.61
9855;BME280;4966;48.112;9.282;2023-08-08T10:43:53;94790.78;;;22.72;39.51
9855;BME280;4966;48.112;9.282;2023-08-08T10:46:27;94783.19;;;23.41;40.38
9855;BME280;4966;48.112;9.282;2023-08-08T10:48:57;94790.78;;;22.38;41.82
9855;BME280;4966;48.112;9.282;2023-08-08T10:51:38;94798.91;;;22.90;38.93
9855;BME280;4966;48.112;9.282;2023-08-08T10:54:12;94779.28;;;23.66;37.28
9855;BME280;4966;48.112;9.282;2023-08-08T10:56:37;94773.56;;;23.22;39.92
9855;BME280;4966;48.112;9.282;2023-08-08T10:59:13;94784.22;;;22.93;38.66
9855;BME280;4966;48.112;9.282;2023-08-08T11:01:40;94780.59;;;23.57;39.94
9855;BME280;4966;48.112;9.282;2023-08-08T11:04:06;94780.31;;;24.26;38.31
9855;BME280;4966;48.112;9.282;2023-08-08T11:06:32;94777.50;;;23.79;38.53
9855;BME280;4966;48.112;9.282;2023-08-08T11:08:58;94777.88;;;22.92;38.27
9855;BME280;4966;48.112;9.282;2023-08-08T11:11:23;94785.94;;;22.45;38.66
9855;BME280;4966;48.112;9.282;2023-08-08T11:13:51;94785.31;;;22.68;38.16
9855;BME280;4966;48.112;9.282;2023-08-08T11:16:16;94785.13;;;22.48;37.85
9855;BME280;4966;48.112;9.282;2023-08-08T11:18:43;94792.00;;;22.37;40.03
9855;BME280;4966;48.112;9.282;2023-08-08T11:21:12;94789.06;;;22.51;39.27
9855;BME280;4966;48.112;9.282;2023-08-08T11:23:37;94791.53;;;22.42;39.24
9855;BME280;4966;48.112;9.282;2023-08-08T11:26:04;94786.63;;;22.12;40.07
9855;BME280;4966;48.112;9.282;2023-08-08T11:28:29;94774.09;;;23.13;39.47
9855;BME280;4966;48.112;9.282;2023-08-08T11:30:55;94776.13;;;24.81;36.72
9855;BME280;4966;48.112;9.282;2023-08-08T11:33:20;94765.25;;;27.04;32.65
9855;BME280;4966;48.112;9.282;2023-08-08T11:35:46;94760.59;;;28.63;29.28
9855;BME280;4966;48.112;9.282;2023-08-08T11:38:14;94760.63;;;28.16;29.93
9855;BME280;4966;48.112;9.282;2023-08-08T11:40:40;94778.56;;;25.72;31.45
9855;BME280;4966;48.112;9.282;2023-08-08T11:43:06;94769.88;;;25.14;32.77
9855;BME280;4966;48.112;9.282;2023-08-08T11:45:31;94772.66;;;23.29;37.37
9855;BME280;4966;48.112;9.282;2023-08-08T11:47:57;94760.63;;;23.12;38.69
9855;BME280;4966;48.112;9.282;2023-08-08T11:50:24;94764.88;;;23.47;37.92
9855;BME280;4966;48.112;9.282;2023-08-08T11:52:52;94750.84;;;26.76;33.49
9855;BME280;4966;48.112;9.282;2023-08-08T11:55:18;94758.63;;;28.51;30.65
9855;BME280;4966;48.112;9.282;2023-08-08T11:57:47;94753.19;;;29.36;27.87
9855;BME280;4966;48.112;9.282;2023-08-08T12:00:13;94757.31;;;29.00;28.10
9855;BME280;4966;48.112;9.282;2023-08-08T12:02:41;94745.94;;;31.11;27.84
9855;BME280;4966;48.112;9.282;2023-08-08T12:05:08;94741.38;;;30.22;24.02
9855;BME280;4966;48.112;9.282;2023-08-08T12:07:35;94735.06;;;30.67;26.31
9855;BME280;4966;48.112;9.282;2023-08-08T12:10:00;94731.72;;;32.81;25.16
9855;BME280;4966;48.112;9.282;2023-08-08T12:12:27;94732.63;;;33.02;21.79
9855;BME280;4966;48.112;9.282;2023-08-08T12:14:53;94737.84;;;30.95;22.72
9855;BME280;4966;48.112;9.282;2023-08-08T12:17:20;94737.19;;;28.35;26.94
9855;BME280;4966;48.112;9.282;2023-08-08T12:19:47;94728.47;;;26.34;29.29
9855;BME280;4966;48.112;9.282;2023-08-08T12:22:12;94737.38;;;26.87;29.88
9855;BME280;4966;48.112;9.282;2023-08-08T12:24:38;94742.00;;;28.70;27.28
9855;BME280;4966;48.112;9.282;2023-08-08T12:27:03;94741.28;;;30.44;26.12
9855;BME280;4966;48.112;9.282;2023-08-08T12:29:29;94733.47;;;32.07;24.05
9855;BME280;4966;48.112;9.282;2023-08-08T12:31:54;94735.75;;;28.31;28.21
9855;BME280;4966;48.112;9.282;2023-08-08T12:34:19;94730.28;;;30.18;26.54
9855;BME280;4966;48.112;9.282;2023-08-08T12:36:45;94729.28;;;28.78;27.73
9855;BME280;4966;48.112;9.282;2023-08-08T12:39:10;94739.06;;;26.98;30.95
9855;BME280;4966;48.112;9.282;2023-08-08T12:41:35;94742.38;;;25.19;32.90
9855;BME280;4966;48.112;9.282;2023-08-08T12:44:01;94741.34;;;28.18;29.39
9855;BME280;4966;48.112;9.282;2023-08-08T12:46:28;94748.03;;;29.65;28.06
9855;BME280;4966;48.112;9.282;2023-08-08T12:48:54;94755.94;;;28.82;27.61
9855;BME280;4966;48.112;9.282;2023-08-08T12:51:19;94746.84;;;29.44;27.66
9855;BME280;4966;48.112;9.282;2023-08-08T12:53:44;94746.66;;;27.77;28.78
9855;BME280;4966;48.112;9.282;2023-08-08T12:56:10;94747.53;;;27.23;32.23
9855;BME280;4966;48.112;9.282;2023-08-08T12:58:35;94733.81;;;26.58;32.15
9855;BME280;4966;48.112;9.282;2023-08-08T13:01:00;94735.50;;;26.97;31.34
9855;BME280;4966;48.112;9.282;2023-08-08T13:03:26;94731.44;;;28.04;28.15
9855;BME280;4966;48.112;9.282;2023-08-08T13:05:51;94730.25;;;26.41;27.59
9855;BME280;4966;48.112;9.282;2023-08-08T13:08:17;94726.66;;;25.45;30.18
9855;BME280;4966;48.112;9.282;2023-08-08T13:10:42;94737.53;;;24.83;29.81
9855;BME280;4966;48.112;9.282;2023-08-08T13:13:08;94730.53;;;24.55;30.45
9855;BME280;4966;48.112;9.282;2023-08-08T13:15:34;94734.88;;;23.89;30.31
9855;BME280;4966;48.112;9.282;2023-08-08T13:18:00;94731.31;;;24.12;30.94